GIA1106 WIMM-OEMA
Flight info
| Callsign | GIA1106 |
|---|---|
| Flight time | N/A |
| Altitude | 37000 |
| Route | MAIMU1A MAIMU DCT MEMAK N563 REXOD L883 UMILA N569 TOKRA DCT ITRUX Y511 ELONU ELONU1H |
| Aircraft | B77W/H-SDE1E2E3FGHIJ2J3J4J5M1RWXYZ/LB1D1 |
Departure
| Time | 2026-04-26 05:47 |
|---|---|
| Airport | Kualanamu International Airport (WIMM) |
Arrival
| Time | N/A |
|---|---|
| Airport | Prince Mohammad Bin Abdulaziz Airport (OEMA) |
| Time | Latitude | Longitude | Altitude | Speed | Heading |
|---|---|---|---|---|---|
| 2026-04-26 05:04 | 3.63778 | 98.87968 | 39 ft | 0 kts | 225° |
| 2026-04-26 05:30 | 3.63787 | 98.87979 | 39 ft | 2 kts | 236° |
| 2026-04-26 05:31 | 3.63794 | 98.87992 | 39 ft | 2 kts | 250° |
| 2026-04-26 05:31 | 3.63798 | 98.88006 | 39 ft | 2 kts | 262° |
| 2026-04-26 05:31 | 3.63799 | 98.88021 | 39 ft | 2 kts | 274° |
| 2026-04-26 05:31 | 3.63797 | 98.88035 | 39 ft | 2 kts | 286° |
| 2026-04-26 05:32 | 3.63792 | 98.88048 | 39 ft | 2 kts | 297° |
| 2026-04-26 05:32 | 3.63784 | 98.88061 | 39 ft | 2 kts | 309° |
| 2026-04-26 05:32 | 3.63775 | 98.88071 | 39 ft | 0 kts | 317° |
| 2026-04-26 05:32 | 3.63774 | 98.88071 | 39 ft | 0 kts | 317° |
| 2026-04-26 05:35 | 3.63779 | 98.88067 | 39 ft | 1 kts | 315° |
| 2026-04-26 05:36 | 3.63794 | 98.88052 | 39 ft | 4 kts | 315° |
| 2026-04-26 05:36 | 3.63829 | 98.88017 | 39 ft | 9 kts | 315° |
| 2026-04-26 05:36 | 3.63874 | 98.87974 | 39 ft | 8 kts | 326° |
| 2026-04-26 05:36 | 3.63924 | 98.87969 | 39 ft | 6 kts | 21° |
| 2026-04-26 05:37 | 3.63960 | 98.87995 | 39 ft | 5 kts | 43° |
| 2026-04-26 05:37 | 3.63987 | 98.88021 | 39 ft | 5 kts | 44° |
| 2026-04-26 05:37 | 3.64010 | 98.88044 | 39 ft | 4 kts | 44° |
| 2026-04-26 05:37 | 3.64040 | 98.88072 | 39 ft | 6 kts | 44° |
| 2026-04-26 05:38 | 3.64079 | 98.88110 | 39 ft | 8 kts | 44° |
| 2026-04-26 05:38 | 3.64127 | 98.88157 | 39 ft | 9 kts | 45° |
| 2026-04-26 05:38 | 3.64183 | 98.88186 | 38 ft | 9 kts | 360° |
| 2026-04-26 05:38 | 3.64241 | 98.88158 | 38 ft | 9 kts | 319° |
| 2026-04-26 05:39 | 3.64289 | 98.88112 | 38 ft | 9 kts | 315° |
| 2026-04-26 05:39 | 3.64341 | 98.88060 | 38 ft | 10 kts | 314° |
| 2026-04-26 05:39 | 3.64396 | 98.88004 | 39 ft | 11 kts | 313° |
| 2026-04-26 05:39 | 3.64406 | 98.87929 | 39 ft | 12 kts | 238° |
| 2026-04-26 05:40 | 3.64344 | 98.87864 | 38 ft | 13 kts | 224° |
| 2026-04-26 05:40 | 3.64273 | 98.87794 | 39 ft | 15 kts | 225° |
| 2026-04-26 05:40 | 3.64194 | 98.87714 | 39 ft | 16 kts | 224° |
| 2026-04-26 05:40 | 3.64106 | 98.87627 | 39 ft | 18 kts | 225° |
| 2026-04-26 05:41 | 3.64012 | 98.87534 | 39 ft | 19 kts | 225° |
| 2026-04-26 05:41 | 3.63912 | 98.87434 | 39 ft | 20 kts | 225° |
| 2026-04-26 05:41 | 3.63807 | 98.87330 | 39 ft | 21 kts | 224° |
| 2026-04-26 05:41 | 3.63693 | 98.87220 | 39 ft | 22 kts | 224° |
| 2026-04-26 05:42 | 3.63575 | 98.87108 | 39 ft | 23 kts | 229° |
| 2026-04-26 05:42 | 3.63458 | 98.86987 | 39 ft | 24 kts | 226° |
| 2026-04-26 05:42 | 3.63334 | 98.86861 | 39 ft | 25 kts | 225° |
| 2026-04-26 05:42 | 3.63206 | 98.86735 | 39 ft | 26 kts | 225° |
| 2026-04-26 05:43 | 3.63083 | 98.86613 | 39 ft | 23 kts | 225° |
| 2026-04-26 05:43 | 3.62973 | 98.86501 | 39 ft | 21 kts | 225° |
| 2026-04-26 05:43 | 3.62874 | 98.86403 | 39 ft | 18 kts | 224° |
| 2026-04-26 05:43 | 3.62786 | 98.86316 | 39 ft | 16 kts | 225° |
| 2026-04-26 05:44 | 3.62709 | 98.86238 | 39 ft | 14 kts | 225° |
| 2026-04-26 05:44 | 3.62641 | 98.86169 | 39 ft | 13 kts | 225° |
| 2026-04-26 05:44 | 3.62581 | 98.86109 | 39 ft | 11 kts | 225° |
| 2026-04-26 05:44 | 3.62530 | 98.86053 | 39 ft | 10 kts | 238° |
| 2026-04-26 05:45 | 3.62522 | 98.85991 | 39 ft | 8 kts | 287° |
| 2026-04-26 05:45 | 3.62546 | 98.85937 | 39 ft | 8 kts | 305° |
| 2026-04-26 05:45 | 3.62588 | 98.85897 | 39 ft | 7 kts | 339° |
| 2026-04-26 05:45 | 3.62632 | 98.85907 | 39 ft | 5 kts | 39° |
| 2026-04-26 05:46 | 3.62640 | 98.85915 | 39 ft | 0 kts | 44° |
| 2026-04-26 05:46 | 3.62764 | 98.86041 | 39 ft | 59 kts | 45° |
| 2026-04-26 05:46 | 3.63239 | 98.86509 | 39 ft | 128 kts | 44° |
| 2026-04-26 05:47 | 3.63997 | 98.87289 | 127 ft | 177 kts | 49° |
| 2026-04-26 05:47 | 3.64884 | 98.88161 | 735 ft | 181 kts | 45° |
| 2026-04-26 05:47 | 3.65945 | 98.88839 | 1416 ft | 188 kts | 21° |
| 2026-04-26 05:47 | 3.67320 | 98.89043 | 1704 ft | 213 kts | 357° |
| 2026-04-26 05:48 | 3.68822 | 98.88573 | 1968 ft | 240 kts | 329° |
| 2026-04-26 05:48 | 3.70055 | 98.87362 | 2294 ft | 261 kts | 308° |
| 2026-04-26 05:48 | 3.71149 | 98.85897 | 3028 ft | 265 kts | 307° |
| 2026-04-26 05:48 | 3.72267 | 98.84378 | 3663 ft | 278 kts | 307° |
| 2026-04-26 05:49 | 3.73407 | 98.82828 | 4455 ft | 282 kts | 307° |
| 2026-04-26 05:49 | 3.75737 | 98.79659 | 4951 ft | 283 kts | 307° |
| 2026-04-26 05:49 | 3.76902 | 98.78073 | 4961 ft | 282 kts | 307° |
| 2026-04-26 05:50 | 3.78075 | 98.76478 | 4954 ft | 282 kts | 307° |
| 2026-04-26 05:50 | 3.79242 | 98.74890 | 4956 ft | 282 kts | 307° |
| 2026-04-26 05:50 | 3.80407 | 98.73304 | 4953 ft | 281 kts | 307° |
| 2026-04-26 05:50 | 3.81549 | 98.71734 | 4952 ft | 281 kts | 303° |
| 2026-04-26 05:51 | 3.82433 | 98.69961 | 5058 ft | 296 kts | 292° |
| 2026-04-26 05:51 | 3.83172 | 98.68060 | 6116 ft | 290 kts | 291° |
| 2026-04-26 05:51 | 3.83877 | 98.66219 | 7123 ft | 287 kts | 292° |
| 2026-04-26 05:51 | 3.84602 | 98.64339 | 7837 ft | 294 kts | 292° |
| 2026-04-26 05:52 | 3.85346 | 98.62417 | 8580 ft | 298 kts | 292° |
| 2026-04-26 05:52 | 3.86095 | 98.60481 | 9369 ft | 301 kts | 292° |
| 2026-04-26 05:52 | 3.86855 | 98.58521 | 10088 ft | 307 kts | 292° |
| 2026-04-26 05:52 | 3.87640 | 98.56494 | 10612 ft | 321 kts | 292° |
| 2026-04-26 05:53 | 3.88467 | 98.54361 | 11054 ft | 337 kts | 292° |
| 2026-04-26 05:53 | 3.89330 | 98.52133 | 11502 ft | 353 kts | 292° |
| 2026-04-26 05:53 | 3.90232 | 98.49804 | 11954 ft | 368 kts | 292° |
| 2026-04-26 05:53 | 3.91182 | 98.47350 | 12363 ft | 384 kts | 292° |
| 2026-04-26 05:54 | 3.92165 | 98.44811 | 12763 ft | 401 kts | 292° |
| 2026-04-26 05:54 | 3.93187 | 98.42172 | 12866 ft | 409 kts | 292° |
| 2026-04-26 05:54 | 3.94207 | 98.39534 | 12844 ft | 408 kts | 292° |
| 2026-04-26 05:54 | 3.95241 | 98.36862 | 12856 ft | 410 kts | 292° |
| 2026-04-26 05:55 | 3.96277 | 98.34184 | 12850 ft | 410 kts | 292° |
| 2026-04-26 05:55 | 3.97277 | 98.31598 | 12843 ft | 410 kts | 292° |
| 2026-04-26 05:55 | 3.98309 | 98.28929 | 12856 ft | 411 kts | 292° |
| 2026-04-26 05:55 | 3.99369 | 98.26193 | 13166 ft | 424 kts | 292° |
| 2026-04-26 05:56 | 4.00422 | 98.23471 | 14169 ft | 421 kts | 292° |
| 2026-04-26 05:56 | 4.01470 | 98.20764 | 15070 ft | 419 kts | 292° |
| 2026-04-26 05:56 | 4.02538 | 98.18006 | 15695 ft | 425 kts | 292° |
| 2026-04-26 05:56 | 4.03614 | 98.15228 | 16322 ft | 431 kts | 292° |
| 2026-04-26 05:57 | 4.04692 | 98.12443 | 16993 ft | 435 kts | 293° |
| 2026-04-26 05:57 | 4.05783 | 98.09624 | 17641 ft | 439 kts | 293° |
| 2026-04-26 05:57 | 4.06903 | 98.06731 | 18239 ft | 445 kts | 292° |
| 2026-04-26 05:57 | 4.08013 | 98.03862 | 18825 ft | 449 kts | 292° |
| 2026-04-26 05:58 | 4.09152 | 98.00920 | 19477 ft | 452 kts | 292° |
| 2026-04-26 05:58 | 4.10284 | 97.97993 | 19835 ft | 459 kts | 292° |
| 2026-04-26 05:58 | 4.11458 | 97.94961 | 20030 ft | 468 kts | 292° |
| 2026-04-26 05:58 | 4.12633 | 97.91930 | 20777 ft | 467 kts | 292° |
| 2026-04-26 05:59 | 4.13797 | 97.88927 | 21561 ft | 464 kts | 292° |
| 2026-04-26 05:59 | 4.14955 | 97.85937 | 22104 ft | 468 kts | 292° |
| 2026-04-26 05:59 | 4.16141 | 97.82877 | 22575 ft | 473 kts | 292° |
| 2026-04-26 05:59 | 4.17338 | 97.79787 | 23122 ft | 476 kts | 292° |
| 2026-04-26 06:00 | 4.18544 | 97.76673 | 23679 ft | 479 kts | 292° |
| 2026-04-26 06:00 | 4.19743 | 97.73579 | 24219 ft | 481 kts | 292° |
| 2026-04-26 06:00 | 4.20945 | 97.70478 | 24762 ft | 483 kts | 292° |
| 2026-04-26 06:00 | 4.22166 | 97.67329 | 25288 ft | 486 kts | 292° |
| 2026-04-26 06:01 | 4.23394 | 97.64162 | 25781 ft | 489 kts | 292° |
| 2026-04-26 06:01 | 4.24629 | 97.60974 | 26307 ft | 491 kts | 292° |
| 2026-04-26 06:01 | 4.25863 | 97.57788 | 26796 ft | 494 kts | 292° |
| 2026-04-26 06:01 | 4.27109 | 97.54574 | 27261 ft | 497 kts | 292° |
| 2026-04-26 06:02 | 4.28359 | 97.51348 | 27732 ft | 500 kts | 292° |
| 2026-04-26 06:02 | 4.29622 | 97.48086 | 28212 ft | 502 kts | 292° |
| 2026-04-26 06:02 | 4.30872 | 97.44858 | 28657 ft | 505 kts | 292° |
| 2026-04-26 06:02 | 4.32154 | 97.41548 | 29076 ft | 509 kts | 292° |
| 2026-04-26 06:03 | 4.33430 | 97.38250 | 29527 ft | 512 kts | 292° |
| 2026-04-26 06:03 | 4.34727 | 97.34900 | 30142 ft | 511 kts | 291° |
| 2026-04-26 06:03 | 4.36005 | 97.31596 | 30817 ft | 509 kts | 291° |
| 2026-04-26 06:03 | 4.37274 | 97.28317 | 31473 ft | 506 kts | 291° |
| 2026-04-26 06:04 | 4.38530 | 97.25072 | 32068 ft | 504 kts | 291° |
| 2026-04-26 06:04 | 4.39625 | 97.21743 | 32597 ft | 504 kts | 284° |
| 2026-04-26 06:04 | 4.40215 | 97.18291 | 33150 ft | 504 kts | 275° |
| 2026-04-26 06:04 | 4.40268 | 97.14766 | 33750 ft | 502 kts | 265° |
| 2026-04-26 06:05 | 4.39916 | 97.11330 | 34364 ft | 499 kts | 263° |
| 2026-04-26 06:05 | 4.39493 | 97.07903 | 34984 ft | 496 kts | 262° |
| 2026-04-26 06:05 | 4.39058 | 97.04429 | 35148 ft | 499 kts | 262° |
| 2026-04-26 06:06 | 4.38183 | 96.97455 | 35160 ft | 495 kts | 262° |
| 2026-04-26 06:06 | 4.37318 | 96.90577 | 35155 ft | 496 kts | 262° |
| 2026-04-26 06:07 | 4.36453 | 96.83707 | 35162 ft | 495 kts | 262° |
| 2026-04-26 06:07 | 4.35784 | 96.76817 | 35157 ft | 497 kts | 270° |
| 2026-04-26 06:08 | 4.36848 | 96.70031 | 35128 ft | 497 kts | 288° |
| 2026-04-26 06:08 | 4.39543 | 96.63616 | 35100 ft | 499 kts | 294° |
| 2026-04-26 06:09 | 4.42428 | 96.57274 | 35077 ft | 497 kts | 295° |
| 2026-04-26 06:09 | 4.45289 | 96.50988 | 35058 ft | 496 kts | 295° |
| 2026-04-26 06:10 | 4.48166 | 96.44666 | 35037 ft | 497 kts | 295° |
| 2026-04-26 06:10 | 4.51019 | 96.38396 | 35010 ft | 496 kts | 295° |
| 2026-04-26 06:11 | 4.53896 | 96.32071 | 34971 ft | 497 kts | 294° |
| 2026-04-26 06:11 | 4.56752 | 96.25789 | 34941 ft | 496 kts | 294° |
| 2026-04-26 06:12 | 4.59596 | 96.19534 | 34941 ft | 496 kts | 295° |
| 2026-04-26 06:12 | 4.62464 | 96.13224 | 34942 ft | 497 kts | 295° |
| 2026-04-26 06:13 | 4.65336 | 96.06901 | 34949 ft | 497 kts | 295° |
| 2026-04-26 06:13 | 4.68200 | 96.00596 | 34943 ft | 495 kts | 295° |
| 2026-04-26 06:14 | 4.71055 | 95.94310 | 34936 ft | 497 kts | 295° |
| 2026-04-26 06:14 | 4.73924 | 95.87991 | 34925 ft | 496 kts | 295° |
| 2026-04-26 06:15 | 4.76791 | 95.81672 | 34924 ft | 495 kts | 295° |
| 2026-04-26 06:15 | 4.79630 | 95.75416 | 34924 ft | 496 kts | 295° |
| 2026-04-26 06:16 | 4.82502 | 95.69085 | 34935 ft | 496 kts | 295° |
| 2026-04-26 06:16 | 4.85349 | 95.62805 | 34939 ft | 495 kts | 295° |
| 2026-04-26 06:17 | 4.88206 | 95.56503 | 34934 ft | 496 kts | 295° |
| 2026-04-26 06:17 | 4.91039 | 95.50253 | 34928 ft | 495 kts | 295° |
| 2026-04-26 06:18 | 4.93900 | 95.43936 | 34917 ft | 496 kts | 295° |
| 2026-04-26 06:18 | 4.96732 | 95.37684 | 34901 ft | 496 kts | 295° |
| 2026-04-26 06:19 | 4.99600 | 95.31351 | 34885 ft | 496 kts | 295° |
| 2026-04-26 06:19 | 5.02438 | 95.25080 | 34866 ft | 497 kts | 295° |
| 2026-04-26 06:20 | 5.05294 | 95.18769 | 34859 ft | 496 kts | 295° |
| 2026-04-26 06:20 | 5.08153 | 95.12450 | 34853 ft | 496 kts | 295° |
| 2026-04-26 06:21 | 5.10939 | 95.06289 | 34851 ft | 497 kts | 295° |
| 2026-04-26 06:21 | 5.13800 | 94.99963 | 34851 ft | 497 kts | 295° |
| 2026-04-26 06:22 | 5.16663 | 94.93628 | 34849 ft | 497 kts | 295° |
| 2026-04-26 06:22 | 5.19439 | 94.87483 | 34849 ft | 495 kts | 295° |
| 2026-04-26 06:23 | 5.20857 | 94.84345 | 34850 ft | 495 kts | 295° |